sensor_id;sensor_type;location;lat;lon;timestamp;P1;durP1;ratioP1;P2;durP2;ratioP2
37169;SDS011;23062;13.952;100.608;2023-04-26T00:03:57;31.00;;;24.00;;
37169;SDS011;23062;13.952;100.608;2023-04-26T00:08:24;30.00;;;22.00;;
37169;SDS011;23062;13.952;100.608;2023-04-26T00:12:52;31.00;;;23.00;;
37169;SDS011;23062;13.952;100.608;2023-04-26T00:17:22;30.00;;;23.00;;
37169;SDS011;23062;13.952;100.608;2023-04-26T00:21:46;32.00;;;23.00;;
37169;SDS011;23062;13.952;100.608;2023-04-26T00:26:13;34.00;;;25.00;;
37169;SDS011;23062;13.952;100.608;2023-04-26T00:30:38;25.00;;;19.00;;
37169;SDS011;23062;13.952;100.608;2023-04-26T00:35:07;31.00;;;24.00;;
37169;SDS011;23062;13.952;100.608;2023-04-26T00:39:36;33.00;;;26.00;;
37169;SDS011;23062;13.952;100.608;2023-04-26T00:44:01;28.00;;;21.00;;
37169;SDS011;23062;13.952;100.608;2023-04-26T00:48:29;31.00;;;23.00;;
37169;SDS011;23062;13.952;100.608;2023-04-26T00:52:55;32.00;;;25.00;;
37169;SDS011;23062;13.952;100.608;2023-04-26T00:57:23;30.00;;;23.00;;
37169;SDS011;23062;13.952;100.608;2023-04-26T01:01:50;36.00;;;26.00;;
37169;SDS011;23062;13.952;100.608;2023-04-26T01:06:18;30.00;;;23.00;;
37169;SDS011;23062;13.952;100.608;2023-04-26T01:10:48;29.00;;;23.00;;
37169;SDS011;23062;13.952;100.608;2023-04-26T01:15:19;29.00;;;21.00;;
37169;SDS011;23062;13.952;100.608;2023-04-26T01:19:48;27.00;;;20.00;;
37169;SDS011;23062;13.952;100.608;2023-04-26T01:24:13;31.00;;;23.00;;
37169;SDS011;23062;13.952;100.608;2023-04-26T01:28:38;25.00;;;19.00;;
37169;SDS011;23062;13.952;100.608;2023-04-26T01:33:04;24.00;;;17.00;;
37169;SDS011;23062;13.952;100.608;2023-04-26T01:37:32;26.00;;;19.00;;
37169;SDS011;23062;13.952;100.608;2023-04-26T01:42:00;28.00;;;20.00;;
37169;SDS011;23062;13.952;100.608;2023-04-26T01:46:29;28.00;;;20.00;;
37169;SDS011;23062;13.952;100.608;2023-04-26T01:50:55;23.00;;;17.00;;
37169;SDS011;23062;13.952;100.608;2023-04-26T01:55:21;24.00;;;18.00;;
37169;SDS011;23062;13.952;100.608;2023-04-26T01:59:47;25.00;;;19.00;;
37169;SDS011;23062;13.952;100.608;2023-04-26T02:04:13;22.00;;;17.00;;
37169;SDS011;23062;13.952;100.608;2023-04-26T02:08:38;27.00;;;20.00;;
37169;SDS011;23062;13.952;100.608;2023-04-26T02:13:06;22.00;;;16.00;;
37169;SDS011;23062;13.952;100.608;2023-04-26T02:17:43;26.00;;;20.00;;
37169;SDS011;23062;13.952;100.608;2023-04-26T02:22:09;22.00;;;17.00;;
37169;SDS011;23062;13.952;100.608;2023-04-26T02:26:36;24.00;;;18.00;;
37169;SDS011;23062;13.952;100.608;2023-04-26T02:31:01;23.00;;;18.00;;
37169;SDS011;23062;13.952;100.608;2023-04-26T02:35:27;22.00;;;17.00;;
37169;SDS011;23062;13.952;100.608;2023-04-26T02:39:52;25.00;;;18.00;;
37169;SDS011;23062;13.952;100.608;2023-04-26T02:44:21;24.00;;;18.00;;
37169;SDS011;23062;13.952;100.608;2023-04-26T02:48:48;23.00;;;18.00;;
37169;SDS011;23062;13.952;100.608;2023-04-26T02:53:13;24.00;;;18.00;;
37169;SDS011;23062;13.952;100.608;2023-04-26T02:57:39;28.00;;;21.00;;
37169;SDS011;23062;13.952;100.608;2023-04-26T03:02:05;27.00;;;19.00;;
37169;SDS011;23062;13.952;100.608;2023-04-26T03:06:33;33.00;;;24.00;;
37169;SDS011;23062;13.952;100.608;2023-04-26T03:10:58;23.00;;;18.00;;
37169;SDS011;23062;13.952;100.608;2023-04-26T03:15:27;23.00;;;17.00;;
37169;SDS011;23062;13.952;100.608;2023-04-26T03:19:53;32.00;;;23.00;;
37169;SDS011;23062;13.952;100.608;2023-04-26T03:24:19;25.00;;;19.00;;
37169;SDS011;23062;13.952;100.608;2023-04-26T03:28:45;28.00;;;20.00;;
37169;SDS011;23062;13.952;100.608;2023-04-26T03:33:14;31.00;;;23.00;;
37169;SDS011;23062;13.952;100.608;2023-04-26T03:37:39;34.00;;;26.00;;
37169;SDS011;23062;13.952;100.608;2023-04-26T03:42:07;31.00;;;23.00;;
37169;SDS011;23062;13.952;100.608;2023-04-26T03:46:32;29.00;;;22.00;;
37169;SDS011;23062;13.952;100.608;2023-04-26T03:51:01;28.00;;;18.67;;
37169;SDS011;23062;13.952;100.608;2023-04-26T03:55:27;27.00;;;21.00;;
37169;SDS011;23062;13.952;100.608;2023-04-26T03:59:54;22.00;;;16.00;;
37169;SDS011;23062;13.952;100.608;2023-04-26T04:04:26;22.00;;;17.00;;
37169;SDS011;23062;13.952;100.608;2023-04-26T04:08:52;22.00;;;16.00;;
37169;SDS011;23062;13.952;100.608;2023-04-26T04:13:19;16.00;;;12.00;;
37169;SDS011;23062;13.952;100.608;2023-04-26T04:17:45;12.00;;;9.00;;
37169;SDS011;23062;13.952;100.608;2023-04-26T04:22:11;13.00;;;9.00;;
37169;SDS011;23062;13.952;100.608;2023-04-26T04:26:42;12.00;;;9.00;;
37169;SDS011;23062;13.952;100.608;2023-04-26T04:31:07;13.00;;;9.00;;
37169;SDS011;23062;13.952;100.608;2023-04-26T04:35:41;12.00;;;9.00;;
37169;SDS011;23062;13.952;100.608;2023-04-26T04:40:10;9.00;;;7.00;;
37169;SDS011;23062;13.952;100.608;2023-04-26T04:44:36;12.00;;;9.00;;
37169;SDS011;23062;13.952;100.608;2023-04-26T04:49:10;11.00;;;8.00;;
37169;SDS011;23062;13.952;100.608;2023-04-26T04:53:32;9.00;;;7.00;;
37169;SDS011;23062;13.952;100.608;2023-04-26T05:02:29;7.00;;;5.00;;
37169;SDS011;23062;13.952;100.608;2023-04-26T05:06:55;7.00;;;5.00;;
37169;SDS011;23062;13.952;100.608;2023-04-26T05:11:28;8.00;;;5.00;;
37169;SDS011;23062;13.952;100.608;2023-04-26T05:15:54;12.00;;;8.00;;
37169;SDS011;23062;13.952;100.608;2023-04-26T05:20:22;8.00;;;6.00;;
37169;SDS011;23062;13.952;100.608;2023-04-26T05:24:50;8.00;;;5.00;;
37169;SDS011;23062;13.952;100.608;2023-04-26T05:29:15;6.00;;;4.00;;
37169;SDS011;23062;13.952;100.608;2023-04-26T05:33:45;7.00;;;4.00;;
37169;SDS011;23062;13.952;100.608;2023-04-26T05:38:12;6.00;;;4.00;;
37169;SDS011;23062;13.952;100.608;2023-04-26T05:42:40;6.00;;;4.00;;
37169;SDS011;23062;13.952;100.608;2023-04-26T05:47:05;7.00;;;5.00;;
37169;SDS011;23062;13.952;100.608;2023-04-26T05:51:31;7.00;;;5.00;;
37169;SDS011;23062;13.952;100.608;2023-04-26T05:55:58;9.00;;;5.60;;
37169;SDS011;23062;13.952;100.608;2023-04-26T06:00:24;10.00;;;7.00;;
37169;SDS011;23062;13.952;100.608;2023-04-26T06:04:51;8.00;;;6.00;;
37169;SDS011;23062;13.952;100.608;2023-04-26T06:09:19;9.00;;;6.00;;
37169;SDS011;23062;13.952;100.608;2023-04-26T06:13:45;8.00;;;5.00;;
37169;SDS011;23062;13.952;100.608;2023-04-26T06:18:12;8.00;;;5.00;;
37169;SDS011;23062;13.952;100.608;2023-04-26T06:22:38;6.00;;;4.00;;
37169;SDS011;23062;13.952;100.608;2023-04-26T06:27:04;7.00;;;5.00;;
37169;SDS011;23062;13.952;100.608;2023-04-26T06:31:34;9.00;;;6.00;;
37169;SDS011;23062;13.952;100.608;2023-04-26T06:36:00;9.00;;;6.00;;
37169;SDS011;23062;13.952;100.608;2023-04-26T06:40:25;8.00;;;5.00;;
37169;SDS011;23062;13.952;100.608;2023-04-26T06:44:53;7.00;;;5.00;;
37169;SDS011;23062;13.952;100.608;2023-04-26T06:49:26;8.00;;;5.00;;
37169;SDS011;23062;13.952;100.608;2023-04-26T06:53:55;8.00;;;5.00;;
37169;SDS011;23062;13.952;100.608;2023-04-26T06:58:31;7.00;;;5.00;;
37169;SDS011;23062;13.952;100.608;2023-04-26T07:03:03;6.00;;;4.00;;
37169;SDS011;23062;13.952;100.608;2023-04-26T07:07:29;11.00;;;7.00;;
37169;SDS011;23062;13.952;100.608;2023-04-26T07:11:57;9.00;;;6.00;;
37169;SDS011;23062;13.952;100.608;2023-04-26T07:16:29;9.00;;;6.00;;
37169;SDS011;23062;13.952;100.608;2023-04-26T07:20:55;10.00;;;7.00;;
37169;SDS011;23062;13.952;100.608;2023-04-26T07:25:21;9.00;;;6.00;;
37169;SDS011;23062;13.952;100.608;2023-04-26T07:29:48;7.00;;;5.00;;
37169;SDS011;23062;13.952;100.608;2023-04-26T07:34:15;9.00;;;6.00;;
37169;SDS011;23062;13.952;100.608;2023-04-26T07:38:43;10.00;;;6.53;;
37169;SDS011;23062;13.952;100.608;2023-04-26T07:43:09;9.00;;;6.00;;
37169;SDS011;23062;13.952;100.608;2023-04-26T07:47:38;10.00;;;8.00;;
37169;SDS011;23062;13.952;100.608;2023-04-26T07:52:06;11.00;;;8.00;;
37169;SDS011;23062;13.952;100.608;2023-04-26T07:56:33;9.00;;;6.00;;
37169;SDS011;23062;13.952;100.608;2023-04-26T08:01:01;9.00;;;6.00;;
37169;SDS011;23062;13.952;100.608;2023-04-26T08:05:28;12.00;;;9.00;;
37169;SDS011;23062;13.952;100.608;2023-04-26T08:09:54;9.00;;;7.00;;
37169;SDS011;23062;13.952;100.608;2023-04-26T08:14:21;10.00;;;7.00;;
37169;SDS011;23062;13.952;100.608;2023-04-26T08:18:47;13.00;;;9.00;;
37169;SDS011;23062;13.952;100.608;2023-04-26T08:23:13;10.00;;;7.00;;
37169;SDS011;23062;13.952;100.608;2023-04-26T08:27:41;11.00;;;7.00;;
37169;SDS011;23062;13.952;100.608;2023-04-26T08:32:08;11.00;;;7.00;;
37169;SDS011;23062;13.952;100.608;2023-04-26T08:36:37;9.00;;;6.00;;
37169;SDS011;23062;13.952;100.608;2023-04-26T08:41:12;12.00;;;8.00;;
37169;SDS011;23062;13.952;100.608;2023-04-26T08:45:39;11.00;;;7.00;;
37169;SDS011;23062;13.952;100.608;2023-04-26T08:50:13;8.00;;;6.00;;
37169;SDS011;23062;13.952;100.608;2023-04-26T08:54:39;10.00;;;7.00;;
37169;SDS011;23062;13.952;100.608;2023-04-26T08:59:09;8.00;;;6.00;;
37169;SDS011;23062;13.952;100.608;2023-04-26T09:03:35;10.00;;;7.00;;
37169;SDS011;23062;13.952;100.608;2023-04-26T09:08:01;8.00;;;6.00;;
37169;SDS011;23062;13.952;100.608;2023-04-26T09:12:29;8.00;;;6.00;;
37169;SDS011;23062;13.952;100.608;2023-04-26T09:16:54;9.00;;;7.00;;
37169;SDS011;23062;13.952;100.608;2023-04-26T09:21:29;9.00;;;7.00;;
37169;SDS011;23062;13.952;100.608;2023-04-26T09:25:51;13.00;;;9.00;;
37169;SDS011;23062;13.952;100.608;2023-04-26T09:30:18;17.00;;;11.27;;
37169;SDS011;23062;13.952;100.608;2023-04-26T09:34:44;11.00;;;8.00;;
37169;SDS011;23062;13.952;100.608;2023-04-26T09:39:10;13.00;;;9.00;;
37169;SDS011;23062;13.952;100.608;2023-04-26T09:43:37;15.00;;;11.00;;
37169;SDS011;23062;13.952;100.608;2023-04-26T09:48:16;17.00;;;13.00;;
37169;SDS011;23062;13.952;100.608;2023-04-26T09:52:54;20.00;;;14.00;;
37169;SDS011;23062;13.952;100.608;2023-04-26T09:57:24;22.00;;;16.00;;
37169;SDS011;23062;13.952;100.608;2023-04-26T10:01:52;19.00;;;13.00;;
37169;SDS011;23062;13.952;100.608;2023-04-26T10:06:18;14.00;;;10.00;;
37169;SDS011;23062;13.952;100.608;2023-04-26T10:10:44;17.00;;;12.00;;
37169;SDS011;23062;13.952;100.608;2023-04-26T10:15:11;16.00;;;11.00;;
37169;SDS011;23062;13.952;100.608;2023-04-26T10:19:38;11.00;;;8.00;;
37169;SDS011;23062;13.952;100.608;2023-04-26T10:24:07;12.00;;;9.00;;
37169;SDS011;23062;13.952;100.608;2023-04-26T10:33:15;14.00;;;10.00;;
37169;SDS011;23062;13.952;100.608;2023-04-26T10:42:33;14.00;;;10.00;;
37169;SDS011;23062;13.952;100.608;2023-04-26T10:47:00;16.00;;;11.00;;
37169;SDS011;23062;13.952;100.608;2023-04-26T10:51:27;14.00;;;10.00;;
37169;SDS011;23062;13.952;100.608;2023-04-26T10:55:54;13.00;;;10.00;;
37169;SDS011;23062;13.952;100.608;2023-04-26T11:00:29;17.00;;;12.13;;
37169;SDS011;23062;13.952;100.608;2023-04-26T11:04:52;18.00;;;13.00;;
37169;SDS011;23062;13.952;100.608;2023-04-26T11:09:40;16.00;;;11.00;;
37169;SDS011;23062;13.952;100.608;2023-04-26T11:14:08;18.00;;;14.00;;
37169;SDS011;23062;13.952;100.608;2023-04-26T11:18:37;18.00;;;13.00;;
37169;SDS011;23062;13.952;100.608;2023-04-26T11:23:09;19.00;;;14.00;;
37169;SDS011;23062;13.952;100.608;2023-04-26T11:27:38;19.00;;;14.00;;
37169;SDS011;23062;13.952;100.608;2023-04-26T11:32:07;18.00;;;13.00;;
37169;SDS011;23062;13.952;100.608;2023-04-26T11:36:36;19.00;;;13.00;;
37169;SDS011;23062;13.952;100.608;2023-04-26T11:41:05;20.00;;;15.00;;
37169;SDS011;23062;13.952;100.608;2023-04-26T11:45:33;21.00;;;16.00;;
37169;SDS011;23062;13.952;100.608;2023-04-26T11:50:00;21.00;;;15.00;;
37169;SDS011;23062;13.952;100.608;2023-04-26T11:54:30;22.00;;;16.00;;
37169;SDS011;23062;13.952;100.608;2023-04-26T11:58:57;22.00;;;17.00;;
37169;SDS011;23062;13.952;100.608;2023-04-26T12:03:23;23.00;;;17.00;;
37169;SDS011;23062;13.952;100.608;2023-04-26T12:08:03;20.00;;;16.00;;
37169;SDS011;23062;13.952;100.608;2023-04-26T12:12:29;23.00;;;18.00;;
37169;SDS011;23062;13.952;100.608;2023-04-26T12:16:58;21.00;;;16.00;;
37169;SDS011;23062;13.952;100.608;2023-04-26T12:21:25;22.00;;;17.00;;
37169;SDS011;23062;13.952;100.608;2023-04-26T12:25:53;16.00;;;12.00;;
37169;SDS011;23062;13.952;100.608;2023-04-26T12:30:22;21.00;;;15.00;;
37169;SDS011;23062;13.952;100.608;2023-04-26T12:34:51;18.00;;;14.00;;
37169;SDS011;23062;13.952;100.608;2023-04-26T12:39:24;22.00;;;17.00;;
37169;SDS011;23062;13.952;100.608;2023-04-26T12:43:51;24.00;;;17.00;;
37169;SDS011;23062;13.952;100.608;2023-04-26T12:48:18;26.00;;;19.00;;
37169;SDS011;23062;13.952;100.608;2023-04-26T12:52:46;24.00;;;17.00;;
37169;SDS011;23062;13.952;100.608;2023-04-26T12:57:14;24.00;;;18.00;;
37169;SDS011;23062;13.952;100.608;2023-04-26T13:01:47;22.00;;;16.00;;
37169;SDS011;23062;13.952;100.608;2023-04-26T13:06:14;23.00;;;17.00;;
37169;SDS011;23062;13.952;100.608;2023-04-26T13:10:44;28.00;;;21.00;;
37169;SDS011;23062;13.952;100.608;2023-04-26T13:15:10;27.00;;;19.00;;
37169;SDS011;23062;13.952;100.608;2023-04-26T13:19:48;29.00;;;21.00;;
37169;SDS011;23062;13.952;100.608;2023-04-26T13:24:12;29.00;;;21.00;;
37169;SDS011;23062;13.952;100.608;2023-04-26T13:28:47;25.00;;;18.00;;
37169;SDS011;23062;13.952;100.608;2023-04-26T13:33:18;30.00;;;23.00;;
37169;SDS011;23062;13.952;100.608;2023-04-26T13:37:47;25.00;;;18.00;;
37169;SDS011;23062;13.952;100.608;2023-04-26T13:42:18;30.00;;;22.00;;
37169;SDS011;23062;13.952;100.608;2023-04-26T13:46:46;25.00;;;19.00;;
37169;SDS011;23062;13.952;100.608;2023-04-26T13:51:17;26.00;;;20.00;;
37169;SDS011;23062;13.952;100.608;2023-04-26T13:55:44;27.00;;;20.00;;
37169;SDS011;23062;13.952;100.608;2023-04-26T14:00:15;24.00;;;19.00;;
37169;SDS011;23062;13.952;100.608;2023-04-26T14:04:43;23.00;;;18.00;;
37169;SDS011;23062;13.952;100.608;2023-04-26T14:09:11;28.00;;;22.00;;
37169;SDS011;23062;13.952;100.608;2023-04-26T14:13:45;27.00;;;20.00;;
37169;SDS011;23062;13.952;100.608;2023-04-26T14:18:12;26.00;;;20.00;;
37169;SDS011;23062;13.952;100.608;2023-04-26T14:22:38;28.00;;;22.00;;
37169;SDS011;23062;13.952;100.608;2023-04-26T14:27:07;26.00;;;20.00;;
37169;SDS011;23062;13.952;100.608;2023-04-26T14:31:33;25.00;;;19.00;;
37169;SDS011;23062;13.952;100.608;2023-04-26T14:35:59;27.00;;;20.00;;
37169;SDS011;23062;13.952;100.608;2023-04-26T14:40:25;27.00;;;21.00;;
37169;SDS011;23062;13.952;100.608;2023-04-26T14:44:51;24.00;;;18.00;;
37169;SDS011;23062;13.952;100.608;2023-04-26T14:49:18;27.00;;;20.00;;
37169;SDS011;23062;13.952;100.608;2023-04-26T14:53:47;22.00;;;16.00;;
37169;SDS011;23062;13.952;100.608;2023-04-26T14:58:11;26.00;;;20.00;;
37169;SDS011;23062;13.952;100.608;2023-04-26T15:02:44;24.00;;;18.00;;
37169;SDS011;23062;13.952;100.608;2023-04-26T15:07:10;26.00;;;20.00;;
37169;SDS011;23062;13.952;100.608;2023-04-26T15:11:37;27.00;;;19.00;;
37169;SDS011;23062;13.952;100.608;2023-04-26T15:16:02;26.00;;;19.00;;
37169;SDS011;23062;13.952;100.608;2023-04-26T15:20:28;28.00;;;22.00;;
37169;SDS011;23062;13.952;100.608;2023-04-26T15:24:55;28.00;;;22.00;;
37169;SDS011;23062;13.952;100.608;2023-04-26T15:29:21;29.00;;;22.00;;
37169;SDS011;23062;13.952;100.608;2023-04-26T15:33:49;38.00;;;28.00;;
37169;SDS011;23062;13.952;100.608;2023-04-26T15:38:16;35.00;;;26.00;;
37169;SDS011;23062;13.952;100.608;2023-04-26T15:42:41;32.00;;;24.00;;
37169;SDS011;23062;13.952;100.608;2023-04-26T15:47:07;36.00;;;27.00;;
37169;SDS011;23062;13.952;100.608;2023-04-26T15:51:33;34.00;;;25.00;;
37169;SDS011;23062;13.952;100.608;2023-04-26T15:55:59;33.00;;;26.00;;
37169;SDS011;23062;13.952;100.608;2023-04-26T16:00:25;32.00;;;23.00;;
37169;SDS011;23062;13.952;100.608;2023-04-26T16:04:55;34.00;;;25.00;;
37169;SDS011;23062;13.952;100.608;2023-04-26T16:09:20;32.00;;;25.00;;
37169;SDS011;23062;13.952;100.608;2023-04-26T16:13:46;35.00;;;27.00;;
37169;SDS011;23062;13.952;100.608;2023-04-26T16:18:16;33.00;;;25.00;;
37169;SDS011;23062;13.952;100.608;2023-04-26T16:22:52;34.00;;;25.00;;
37169;SDS011;23062;13.952;100.608;2023-04-26T16:27:17;34.00;;;26.00;;
37169;SDS011;23062;13.952;100.608;2023-04-26T16:31:43;35.00;;;25.00;;
37169;SDS011;23062;13.952;100.608;2023-04-26T16:36:09;33.00;;;25.00;;
37169;SDS011;23062;13.952;100.608;2023-04-26T16:40:36;32.00;;;24.00;;
37169;SDS011;23062;13.952;100.608;2023-04-26T16:45:01;35.00;;;27.00;;
37169;SDS011;23062;13.952;100.608;2023-04-26T16:49:26;38.00;;;29.00;;
37169;SDS011;23062;13.952;100.608;2023-04-26T16:53:55;36.00;;;27.00;;
37169;SDS011;23062;13.952;100.608;2023-04-26T16:58:24;36.00;;;26.00;;
37169;SDS011;23062;13.952;100.608;2023-04-26T17:02:52;36.00;;;27.00;;
37169;SDS011;23062;13.952;100.608;2023-04-26T17:07:16;35.00;;;28.00;;
37169;SDS011;23062;13.952;100.608;2023-04-26T17:11:45;29.00;;;22.00;;
37169;SDS011;23062;13.952;100.608;2023-04-26T17:16:11;31.00;;;23.00;;
37169;SDS011;23062;13.952;100.608;2023-04-26T17:20:40;28.00;;;21.00;;
37169;SDS011;23062;13.952;100.608;2023-04-26T17:25:06;29.00;;;21.00;;
37169;SDS011;23062;13.952;100.608;2023-04-26T17:29:32;31.00;;;23.00;;
37169;SDS011;23062;13.952;100.608;2023-04-26T17:33:57;30.00;;;22.00;;
37169;SDS011;23062;13.952;100.608;2023-04-26T17:38:23;31.00;;;24.00;;
37169;SDS011;23062;13.952;100.608;2023-04-26T17:42:49;29.00;;;21.00;;
37169;SDS011;23062;13.952;100.608;2023-04-26T17:47:18;30.00;;;23.00;;
37169;SDS011;23062;13.952;100.608;2023-04-26T17:51:44;30.00;;;23.00;;
37169;SDS011;23062;13.952;100.608;2023-04-26T17:56:09;32.00;;;24.00;;
37169;SDS011;23062;13.952;100.608;2023-04-26T18:00:35;27.00;;;21.00;;
37169;SDS011;23062;13.952;100.608;2023-04-26T18:05:00;34.00;;;26.00;;
37169;SDS011;23062;13.952;100.608;2023-04-26T18:09:27;35.00;;;27.00;;
37169;SDS011;23062;13.952;100.608;2023-04-26T18:13:53;34.00;;;25.00;;
37169;SDS011;23062;13.952;100.608;2023-04-26T18:18:19;33.00;;;25.00;;
37169;SDS011;23062;13.952;100.608;2023-04-26T18:22:45;32.00;;;24.00;;
37169;SDS011;23062;13.952;100.608;2023-04-26T18:27:11;35.00;;;26.00;;
37169;SDS011;23062;13.952;100.608;2023-04-26T18:31:37;31.00;;;23.00;;
37169;SDS011;23062;13.952;100.608;2023-04-26T18:36:09;29.00;;;22.00;;
37169;SDS011;23062;13.952;100.608;2023-04-26T18:40:35;29.00;;;22.00;;
37169;SDS011;23062;13.952;100.608;2023-04-26T18:45:02;27.00;;;20.00;;
37169;SDS011;23062;13.952;100.608;2023-04-26T18:49:29;30.00;;;22.00;;
37169;SDS011;23062;13.952;100.608;2023-04-26T18:53:56;32.00;;;23.00;;
37169;SDS011;23062;13.952;100.608;2023-04-26T18:58:21;33.00;;;25.00;;
37169;SDS011;23062;13.952;100.608;2023-04-26T19:02:47;31.00;;;23.00;;
37169;SDS011;23062;13.952;100.608;2023-04-26T19:07:13;31.00;;;23.00;;
37169;SDS011;23062;13.952;100.608;2023-04-26T19:11:42;26.00;;;20.00;;
37169;SDS011;23062;13.952;100.608;2023-04-26T19:16:08;32.00;;;24.00;;
37169;SDS011;23062;13.952;100.608;2023-04-26T19:20:34;27.00;;;21.00;;
37169;SDS011;23062;13.952;100.608;2023-04-26T19:24:59;34.00;;;25.00;;
37169;SDS011;23062;13.952;100.608;2023-04-26T19:29:26;29.00;;;21.00;;
37169;SDS011;23062;13.952;100.608;2023-04-26T19:33:52;32.00;;;24.00;;
37169;SDS011;23062;13.952;100.608;2023-04-26T19:38:18;28.00;;;21.00;;
37169;SDS011;23062;13.952;100.608;2023-04-26T19:42:48;30.00;;;23.00;;
37169;SDS011;23062;13.952;100.608;2023-04-26T19:47:14;31.00;;;24.00;;
37169;SDS011;23062;13.952;100.608;2023-04-26T19:51:40;31.00;;;23.00;;
37169;SDS011;23062;13.952;100.608;2023-04-26T19:56:06;31.00;;;24.00;;
37169;SDS011;23062;13.952;100.608;2023-04-26T20:00:34;38.00;;;28.00;;
37169;SDS011;23062;13.952;100.608;2023-04-26T20:05:01;40.00;;;30.00;;
37169;SDS011;23062;13.952;100.608;2023-04-26T20:09:29;40.00;;;29.00;;
37169;SDS011;23062;13.952;100.608;2023-04-26T20:13:58;40.00;;;30.00;;
37169;SDS011;23062;13.952;100.608;2023-04-26T20:18:26;46.00;;;35.00;;
37169;SDS011;23062;13.952;100.608;2023-04-26T20:22:55;44.00;;;34.00;;
37169;SDS011;23062;13.952;100.608;2023-04-26T20:27:22;48.00;;;35.00;;
37169;SDS011;23062;13.952;100.608;2023-04-26T21:34:31;38.00;;;29.00;;
37169;SDS011;23062;13.952;100.608;2023-04-26T21:39:05;43.00;;;34.00;;
37169;SDS011;23062;13.952;100.608;2023-04-26T21:43:35;42.00;;;32.00;;
37169;SDS011;23062;13.952;100.608;2023-04-26T21:48:02;38.00;;;28.00;;
37169;SDS011;23062;13.952;100.608;2023-04-26T21:52:28;38.00;;;30.00;;
37169;SDS011;23062;13.952;100.608;2023-04-26T21:56:55;41.00;;;32.00;;
37169;SDS011;23062;13.952;100.608;2023-04-26T22:01:24;36.00;;;28.00;;
37169;SDS011;23062;13.952;100.608;2023-04-26T22:05:57;40.00;;;30.00;;
37169;SDS011;23062;13.952;100.608;2023-04-26T22:10:18;36.00;;;27.00;;
37169;SDS011;23062;13.952;100.608;2023-04-26T22:14:43;38.00;;;28.00;;
37169;SDS011;23062;13.952;100.608;2023-04-26T22:19:09;36.00;;;28.00;;
37169;SDS011;23062;13.952;100.608;2023-04-26T22:23:37;39.00;;;27.07;;
37169;SDS011;23062;13.952;100.608;2023-04-26T22:28:03;35.00;;;27.00;;
37169;SDS011;23062;13.952;100.608;2023-04-26T22:32:31;41.00;;;30.00;;
37169;SDS011;23062;13.952;100.608;2023-04-26T22:36:56;40.00;;;31.00;;
37169;SDS011;23062;13.952;100.608;2023-04-26T22:41:26;39.00;;;30.00;;
37169;SDS011;23062;13.952;100.608;2023-04-26T22:45:53;44.00;;;33.00;;
37169;SDS011;23062;13.952;100.608;2023-04-26T22:50:18;43.00;;;33.00;;
37169;SDS011;23062;13.952;100.608;2023-04-26T22:54:44;47.00;;;34.00;;
37169;SDS011;23062;13.952;100.608;2023-04-26T22:59:11;47.00;;;35.00;;
37169;SDS011;23062;13.952;100.608;2023-04-26T23:03:41;45.00;;;34.00;;
37169;SDS011;23062;13.952;100.608;2023-04-26T23:08:06;43.00;;;33.00;;
37169;SDS011;23062;13.952;100.608;2023-04-26T23:12:33;43.00;;;32.00;;
37169;SDS011;23062;13.952;100.608;2023-04-26T23:16:59;45.00;;;33.00;;
37169;SDS011;23062;13.952;100.608;2023-04-26T23:21:24;42.00;;;31.00;;
37169;SDS011;23062;13.952;100.608;2023-04-26T23:25:53;40.00;;;30.00;;
37169;SDS011;23062;13.952;100.608;2023-04-26T23:30:19;40.00;;;31.00;;
37169;SDS011;23062;13.952;100.608;2023-04-26T23:34:44;43.00;;;32.00;;
37169;SDS011;23062;13.952;100.608;2023-04-26T23:39:10;42.00;;;32.00;;
37169;SDS011;23062;13.952;100.608;2023-04-26T23:43:36;39.00;;;30.00;;
37169;SDS011;23062;13.952;100.608;2023-04-26T23:48:06;43.00;;;33.00;;
37169;SDS011;23062;13.952;100.608;2023-04-26T23:52:38;43.00;;;34.00;;
37169;SDS011;23062;13.952;100.608;2023-04-26T23:57:04;41.00;;;32.00;;
